Terminal Aerodrome Forecast
Issued by NWS

Home | Current Version | Previous Version | Text Only | Print | Product List | Glossary Off
Versions: 1 2 3 4 5 6 7 8 9 10 11 12 13

000
FTUS43 KOAX 211125
TAFCDR
TAF
KCDR 211125Z 2112/2212 23008KT P6SM BKN120
     FM211400 26008KT P6SM SCT050
     FM220200 24007KT P56SM SCT100=

USA.gov is the U.S. government's official web portal to all federal, state and local government web resources and services.